Terminal Aerodrome Forecast
Issued by NWS

Home | Current Version | Previous Version | Text Only | Print | Product List | Glossary On
Versions: 1 2 3 4 5 6 7 8 9 10 11 12
000
FTUS46 KSGX 180500
TAFCRQ
TAF
KCRQ 180520Z 1806/1906 VRB04KT P6SM SKC
     FM181300 VRB04KT P6SM BKN010
     FM181700 VRB04KT P6SM SCT012
     FM181900 27009KT P6SM SCT015
     FM190000 VRB04KT P6SM BKN022=

USA.gov is the U.S. government's official web portal to all federal, state and local government web resources and services.